createdAt,value
2023-05-09T00:02:19.603Z,12.20
2023-05-09T00:07:17.834Z,12.10
2023-05-09T00:12:16.082Z,12.00
2023-05-09T00:17:15.868Z,11.80
2023-05-09T00:22:14.234Z,11.80
2023-05-09T00:27:12.433Z,11.70
2023-05-09T00:32:11.638Z,11.70
2023-05-09T00:37:11.380Z,11.60
2023-05-09T00:42:09.442Z,11.70
2023-05-09T00:47:08.210Z,11.70
2023-05-09T00:52:06.794Z,11.70
2023-05-09T00:57:06.627Z,11.60
2023-05-09T01:02:04.820Z,11.50
2023-05-09T01:07:07.506Z,11.40
2023-05-09T01:12:15.154Z,11.40
2023-05-09T01:17:19.832Z,11.40
2023-05-09T01:22:19.680Z,11.30
2023-05-09T01:27:34.169Z,11.30
2023-05-09T01:32:37.035Z,11.20
2023-05-09T01:37:37.138Z,11.10
2023-05-09T01:42:42.605Z,11.10
2023-05-09T01:47:43.741Z,11.00
2023-05-09T01:52:44.099Z,11.00
2023-05-09T01:57:44.278Z,11.10
2023-05-09T02:02:45.166Z,11.10
2023-05-09T02:07:44.048Z,11.00
2023-05-09T02:12:42.329Z,10.90
2023-05-09T02:17:40.786Z,10.80
2023-05-09T02:22:42.394Z,10.70
2023-05-09T02:27:41.545Z,10.70
2023-05-09T02:32:41.748Z,10.70
2023-05-09T02:37:41.757Z,10.70
2023-05-09T02:42:40.056Z,10.70
2023-05-09T02:47:38.400Z,10.60
2023-05-09T02:52:36.664Z,10.60
2023-05-09T03:02:52.548Z,10.50
2023-05-09T03:07:51.509Z,10.50
2023-05-09T03:12:51.341Z,10.30
2023-05-09T03:17:49.802Z,10.40
2023-05-09T03:22:48.647Z,10.40
2023-05-09T03:27:47.258Z,10.40
2023-05-09T03:32:48.463Z,10.50
2023-05-09T03:37:46.793Z,10.50
2023-05-09T03:42:44.943Z,10.50
2023-05-09T03:47:43.652Z,10.40
2023-05-09T03:52:44.416Z,10.30
2023-05-09T03:57:45.030Z,10.30
2023-05-09T04:02:43.544Z,10.30
2023-05-09T04:07:52.268Z,10.30
2023-05-09T04:12:50.883Z,10.30
2023-05-09T04:17:49.299Z,10.20
2023-05-09T04:22:47.766Z,10.20
2023-05-09T04:27:49.007Z,10.20
2023-05-09T04:32:47.463Z,10.20
2023-05-09T04:37:46.258Z,10.20
2023-05-09T04:42:45.209Z,10.30
2023-05-09T04:47:44.964Z,10.40
2023-05-09T04:52:43.414Z,10.40
2023-05-09T04:57:41.528Z,10.40
2023-05-09T05:02:40.061Z,10.50
2023-05-09T05:07:39.858Z,10.50
2023-05-09T05:12:38.199Z,10.60
2023-05-09T05:17:39.665Z,10.50
2023-05-09T05:22:41.124Z,10.70
2023-05-09T05:27:39.232Z,10.80
2023-05-09T05:32:39.900Z,11.00
2023-05-09T05:37:40.445Z,11.10
2023-05-09T05:42:39.397Z,11.20
2023-05-09T05:47:38.744Z,11.40
2023-05-09T05:52:37.741Z,11.60
2023-05-09T05:57:37.842Z,11.70
2023-05-09T06:02:38.247Z,11.70
2023-05-09T06:07:36.623Z,11.70
2023-05-09T06:12:35.071Z,11.90
2023-05-09T06:17:34.922Z,12.10
2023-05-09T06:22:33.191Z,12.20
2023-05-09T06:27:31.396Z,12.60
2023-05-09T06:32:29.455Z,12.80
2023-05-09T06:37:29.229Z,13.00
2023-05-09T06:42:28.650Z,13.00
2023-05-09T06:47:26.870Z,13.10
2023-05-09T06:52:25.129Z,13.30
2023-05-09T06:57:24.545Z,13.30
2023-05-09T07:02:22.581Z,13.40
2023-05-09T07:07:20.872Z,13.60
2023-05-09T07:12:19.098Z,13.80
2023-05-09T07:17:23.625Z,14.00
2023-05-09T07:22:22.698Z,14.00
2023-05-09T07:27:20.985Z,13.80
2023-05-09T07:32:20.668Z,13.80
2023-05-09T07:37:18.860Z,14.10
2023-05-09T07:42:17.201Z,14.20
2023-05-09T07:47:15.401Z,14.70
2023-05-09T07:52:14.946Z,15.10
2023-05-09T07:57:13.172Z,14.80
2023-05-09T08:02:11.434Z,14.70
2023-05-09T08:07:09.698Z,14.90
2023-05-09T08:12:09.776Z,15.20
2023-05-09T08:17:08.034Z,15.60
2023-05-09T08:27:23.479Z,15.40
2023-05-09T08:32:21.702Z,15.70
2023-05-09T08:37:19.915Z,16.20
2023-05-09T08:42:24.775Z,16.60
2023-05-09T08:47:26.295Z,16.70
2023-05-09T08:52:24.716Z,16.90
2023-05-09T08:57:23.187Z,17.30
2023-05-09T09:02:21.657Z,17.10
2023-05-09T09:07:21.855Z,17.70
2023-05-09T09:12:23.060Z,18.00
2023-05-09T09:17:24.618Z,18.80
2023-05-09T09:22:25.051Z,19.30
2023-05-09T09:27:23.282Z,20.00
2023-05-09T09:32:33.468Z,21.20
2023-05-09T09:37:35.290Z,21.50
2023-05-09T09:42:42.951Z,21.20
2023-05-09T09:47:41.813Z,21.70
2023-05-09T09:52:45.872Z,21.70
2023-05-09T09:57:45.966Z,21.60
2023-05-09T10:02:51.880Z,22.00
2023-05-09T10:07:56.977Z,22.80
2023-05-09T10:12:58.348Z,22.70
2023-05-09T10:17:59.200Z,22.60
2023-05-09T10:23:02.724Z,22.70
2023-05-09T10:28:02.547Z,22.30
2023-05-09T10:33:05.095Z,22.60
2023-05-09T10:38:05.547Z,22.40
2023-05-09T10:43:03.553Z,22.40
2023-05-09T10:48:04.187Z,22.10
2023-05-09T10:53:14.479Z,22.00
2023-05-09T10:58:23.936Z,21.80
2023-05-09T11:03:22.172Z,21.70
2023-05-09T11:08:23.849Z,22.10
2023-05-09T11:13:24.921Z,22.30
2023-05-09T11:18:23.349Z,22.30
2023-05-09T11:23:26.608Z,22.20
2023-05-09T11:28:29.415Z,22.30
2023-05-09T11:33:30.402Z,22.30
2023-05-09T11:38:42.802Z,22.60
2023-05-09T11:43:41.497Z,22.50
2023-05-09T11:48:40.714Z,22.70
2023-05-09T11:53:47.003Z,23.30
2023-05-09T11:58:46.705Z,23.70
2023-05-09T12:03:45.764Z,23.20
2023-05-09T12:08:45.834Z,23.00
2023-05-09T12:13:48.545Z,22.90
2023-05-09T12:18:48.160Z,22.90
2023-05-09T12:23:50.940Z,22.60
2023-05-09T12:28:51.170Z,22.50
2023-05-09T12:33:49.685Z,22.30
2023-05-09T12:38:58.768Z,22.30
2023-05-09T12:43:57.182Z,22.80
2023-05-09T12:48:55.753Z,22.60
2023-05-09T12:53:54.064Z,22.60
2023-05-09T12:58:55.174Z,22.50
2023-05-09T13:03:54.151Z,22.50
2023-05-09T13:09:01.339Z,22.50
2023-05-09T13:14:03.329Z,22.20
2023-05-09T13:19:01.575Z,22.70
2023-05-09T13:23:59.820Z,22.90
2023-05-09T13:28:58.106Z,23.10
2023-05-09T13:33:57.674Z,22.90
2023-05-09T13:38:55.896Z,22.90
2023-05-09T13:43:54.073Z,22.50
2023-05-09T13:48:52.289Z,22.60
2023-05-09T13:53:51.831Z,22.90
2023-05-09T13:58:50.010Z,22.90
2023-05-09T14:03:49.285Z,23.30
2023-05-09T14:08:47.591Z,23.30
2023-05-09T14:13:47.340Z,23.20
2023-05-09T14:18:45.600Z,23.50
2023-05-09T14:23:43.854Z,23.50
2023-05-09T14:28:42.139Z,23.70
2023-05-09T14:33:41.505Z,23.70
2023-05-09T14:38:40.631Z,23.80
2023-05-09T14:43:38.651Z,23.40
2023-05-09T14:48:36.877Z,23.10
2023-05-09T14:53:40.829Z,22.50
2023-05-09T14:58:39.620Z,22.60
2023-05-09T15:03:39.662Z,22.30
2023-05-09T15:08:39.577Z,22.80
2023-05-09T15:13:38.530Z,23.10
2023-05-09T15:18:36.743Z,22.60
2023-05-09T15:23:36.022Z,22.70
2023-05-09T15:28:35.602Z,22.60
2023-05-09T15:33:34.063Z,22.20
2023-05-09T15:38:32.140Z,22.10
2023-05-09T15:43:30.383Z,22.20
2023-05-09T15:48:29.990Z,22.30
2023-05-09T15:53:28.764Z,22.20
2023-05-09T15:58:27.218Z,22.10
2023-05-09T16:03:25.885Z,22.10
2023-05-09T16:08:25.765Z,22.00
2023-05-09T16:13:24.071Z,22.20
2023-05-09T16:18:22.443Z,22.10
2023-05-09T16:23:21.002Z,22.00
2023-05-09T16:28:23.582Z,22.10
2023-05-09T16:33:21.936Z,22.20
2023-05-09T16:38:20.420Z,22.20
2023-05-09T16:43:20.625Z,22.10
2023-05-09T16:48:19.572Z,22.20
2023-05-09T16:53:19.788Z,22.20
2023-05-09T16:58:18.302Z,21.80
2023-05-09T17:03:17.885Z,21.20
2023-05-09T17:08:15.957Z,21.10
2023-05-09T17:13:14.491Z,21.10
2023-05-09T17:18:17.000Z,20.90
2023-05-09T17:23:18.970Z,20.80
2023-05-09T17:28:17.221Z,20.80
2023-05-09T17:33:15.393Z,20.60
2023-05-09T17:38:13.588Z,20.50
2023-05-09T17:43:14.185Z,20.30
2023-05-09T17:48:13.364Z,20.00
2023-05-09T17:53:11.898Z,19.70
2023-05-09T17:58:10.511Z,19.70
2023-05-09T18:03:10.221Z,19.50
2023-05-09T18:08:08.397Z,19.50
2023-05-09T18:13:06.855Z,19.40
2023-05-09T18:18:05.771Z,19.20
2023-05-09T18:23:06.162Z,19.10
2023-05-09T18:28:04.294Z,19.00
2023-05-09T18:33:02.727Z,18.90
2023-05-09T18:38:01.036Z,18.90
2023-05-09T18:43:00.650Z,18.80
2023-05-09T18:47:59.117Z,18.70
2023-05-09T18:52:57.368Z,18.60
2023-05-09T18:57:55.397Z,18.40
2023-05-09T19:02:55.263Z,18.20
2023-05-09T19:07:54.259Z,18.10
2023-05-09T19:12:52.626Z,17.90
2023-05-09T19:17:51.266Z,17.80
2023-05-09T19:22:51.519Z,17.70
2023-05-09T19:27:49.520Z,17.60
2023-05-09T19:32:47.914Z,17.50
2023-05-09T19:37:46.333Z,17.40
2023-05-09T19:42:45.854Z,17.40
2023-05-09T19:47:44.260Z,17.30
2023-05-09T19:52:42.595Z,17.20
2023-05-09T19:57:40.923Z,17.20
2023-05-09T20:02:40.682Z,17.10
2023-05-09T20:07:39.180Z,17.00
2023-05-09T20:12:37.826Z,16.90
2023-05-09T20:17:36.089Z,16.80
2023-05-09T20:22:35.821Z,16.80
2023-05-09T20:27:35.534Z,16.80
2023-05-09T20:32:33.731Z,16.60
2023-05-09T20:37:31.886Z,16.60
2023-05-09T20:42:31.535Z,16.50
2023-05-09T20:47:29.736Z,16.40
2023-05-09T20:52:28.169Z,16.50
2023-05-09T20:57:26.216Z,16.40
2023-05-09T21:02:26.014Z,16.40
2023-05-09T21:07:24.121Z,16.30
2023-05-09T21:12:22.473Z,16.10
2023-05-09T21:17:20.968Z,16.10
2023-05-09T21:22:20.615Z,16.10
2023-05-09T21:27:18.684Z,16.10
2023-05-09T21:32:17.428Z,16.00
2023-05-09T21:37:15.633Z,15.90
2023-05-09T21:42:15.228Z,15.70
2023-05-09T21:47:13.297Z,15.60
2023-05-09T21:52:11.638Z,15.60
2023-05-09T21:57:09.825Z,15.60
2023-05-09T22:02:09.576Z,15.50
2023-05-09T22:07:08.053Z,15.50
2023-05-09T22:12:06.532Z,15.60
2023-05-09T22:17:04.878Z,15.50
2023-05-09T22:22:04.246Z,15.40
2023-05-09T22:27:02.715Z,15.30
2023-05-09T22:32:01.015Z,15.30
2023-05-09T22:36:59.278Z,15.20
2023-05-09T22:41:58.663Z,15.10
2023-05-09T22:46:56.845Z,15.10
2023-05-09T22:51:55.076Z,15.00
2023-05-09T22:56:53.107Z,14.90
2023-05-09T23:01:53.616Z,14.90
2023-05-09T23:06:52.133Z,14.90
2023-05-09T23:11:50.359Z,14.80
2023-05-09T23:22:06.090Z,14.70
2023-05-09T23:27:04.444Z,14.60
2023-05-09T23:32:02.926Z,14.60
2023-05-09T23:37:01.143Z,14.50
2023-05-09T23:42:00.819Z,14.40
2023-05-09T23:46:59.134Z,14.30
2023-05-09T23:51:57.233Z,14.30
2023-05-09T23:56:56.287Z,14.30
